createdAt,value
2019-03-12T00:01:51.722Z,5.90
2019-03-12T00:04:18.864Z,5.80
2019-03-12T00:06:45.903Z,5.80
2019-03-12T00:09:14.342Z,5.80
2019-03-12T00:11:42.882Z,5.70
2019-03-12T00:14:11.422Z,5.60
2019-03-12T00:16:39.987Z,5.60
2019-03-12T00:19:08.465Z,5.60
2019-03-12T00:21:37.416Z,5.50
2019-03-12T00:24:05.786Z,5.50
2019-03-12T00:26:34.127Z,5.40
2019-03-12T00:29:02.748Z,5.40
2019-03-12T00:31:30.573Z,5.50
2019-03-12T00:33:57.741Z,5.40
2019-03-12T00:36:25.025Z,5.40
2019-03-12T00:38:52.527Z,5.30
2019-03-12T00:41:20.902Z,5.30
2019-03-12T00:43:49.029Z,5.30
2019-03-12T00:46:17.874Z,5.10
2019-03-12T00:48:46.489Z,5.00
2019-03-12T00:51:15.323Z,4.90
2019-03-12T00:53:44.033Z,4.90
2019-03-12T00:56:12.826Z,5.00
2019-03-12T00:58:40.858Z,4.90
2019-03-12T01:01:09.640Z,4.90
2019-03-12T01:03:39.250Z,4.90
2019-03-12T01:06:06.318Z,5.00
2019-03-12T01:08:33.364Z,5.00
2019-03-12T01:11:00.759Z,5.00
2019-03-12T01:13:29.124Z,4.90
2019-03-12T01:15:57.912Z,5.00
2019-03-12T01:18:26.142Z,5.00
2019-03-12T01:20:54.662Z,5.00
2019-03-12T01:23:22.938Z,5.10
2019-03-12T01:25:50.967Z,5.10
2019-03-12T01:28:19.158Z,5.00
2019-03-12T01:30:47.182Z,5.00
2019-03-12T01:33:14.218Z,4.90
2019-03-12T01:35:41.246Z,4.90
2019-03-12T01:38:08.377Z,4.90
2019-03-12T01:40:35.514Z,4.90
2019-03-12T01:43:03.766Z,4.90
2019-03-12T01:45:31.898Z,4.90
2019-03-12T01:48:00.064Z,4.90
2019-03-12T01:50:28.091Z,4.90
2019-03-12T01:52:56.259Z,5.00
2019-03-12T01:55:24.294Z,4.90
2019-03-12T01:57:52.345Z,4.90
2019-03-12T02:00:20.729Z,4.80
2019-03-12T02:02:49.933Z,4.80
2019-03-12T02:05:17.215Z,4.70
2019-03-12T02:07:44.633Z,4.70
2019-03-12T02:10:12.402Z,4.70
2019-03-12T02:12:40.061Z,4.80
2019-03-12T02:15:09.625Z,4.70
2019-03-12T02:17:38.908Z,4.70
2019-03-12T02:20:09.881Z,4.70
2019-03-12T02:22:39.497Z,4.70
2019-03-12T02:25:09.331Z,4.70
2019-03-12T02:27:37.824Z,4.70
2019-03-12T02:30:08.230Z,4.70
2019-03-12T02:32:36.628Z,4.60
2019-03-12T02:35:05.524Z,4.60
2019-03-12T02:37:32.965Z,4.60
2019-03-12T02:40:00.637Z,4.60
2019-03-12T02:42:29.110Z,4.60
2019-03-12T02:44:56.461Z,4.60
2019-03-12T02:47:24.841Z,4.60
2019-03-12T02:49:53.359Z,4.60
2019-03-12T02:52:22.068Z,4.60
2019-03-12T02:54:51.207Z,4.50
2019-03-12T02:57:19.995Z,4.50
2019-03-12T02:59:48.019Z,4.50
2019-03-12T03:02:16.656Z,4.50
2019-03-12T03:04:45.067Z,4.50
2019-03-12T03:07:41.064Z,4.40
2019-03-12T03:10:10.004Z,4.50
2019-03-12T03:12:37.771Z,4.40
2019-03-12T03:15:09.990Z,4.40
2019-03-12T03:17:37.651Z,4.40
2019-03-12T03:20:05.088Z,4.40
2019-03-12T03:22:33.482Z,4.30
2019-03-12T03:25:01.877Z,4.30
2019-03-12T03:27:30.400Z,4.30
2019-03-12T03:29:59.102Z,4.30
2019-03-12T03:32:27.922Z,4.40
2019-03-12T03:34:56.111Z,4.40
2019-03-12T03:37:24.788Z,4.40
2019-03-12T03:39:53.058Z,4.40
2019-03-12T03:42:20.618Z,4.40
2019-03-12T03:44:48.138Z,4.30
2019-03-12T03:47:19.556Z,4.30
2019-03-12T03:49:44.629Z,4.40
2019-03-12T03:52:12.665Z,4.30
2019-03-12T03:54:41.396Z,4.20
2019-03-12T03:57:10.377Z,4.30
2019-03-12T03:59:39.063Z,4.30
2019-03-12T04:02:07.371Z,4.30
2019-03-12T04:04:35.866Z,4.30
2019-03-12T04:07:04.201Z,4.30
2019-03-12T04:09:32.693Z,4.20
2019-03-12T04:12:01.259Z,4.20
2019-03-12T04:14:29.958Z,4.20
2019-03-12T04:16:57.514Z,4.30
2019-03-12T04:19:25.074Z,4.20
2019-03-12T04:21:52.730Z,4.40
2019-03-12T04:24:19.635Z,4.30
2019-03-12T04:26:50.835Z,4.30
2019-03-12T04:29:19.707Z,4.30
2019-03-12T04:31:48.259Z,4.30
2019-03-12T04:34:28.659Z,4.30
2019-03-12T04:36:56.955Z,4.40
2019-03-12T04:39:25.740Z,4.40
2019-03-12T04:41:54.817Z,4.30
2019-03-12T04:44:22.733Z,4.30
2019-03-12T04:46:51.117Z,4.30
2019-03-12T04:49:19.641Z,4.40
2019-03-12T04:51:46.941Z,4.30
2019-03-12T04:54:14.566Z,4.30
2019-03-12T04:56:42.525Z,4.30
2019-03-12T04:59:10.301Z,4.20
2019-03-12T05:01:38.742Z,4.30
2019-03-12T05:04:06.994Z,4.30
2019-03-12T05:06:35.252Z,4.30
2019-03-12T05:09:07.626Z,4.30
2019-03-12T05:11:36.580Z,4.30
2019-03-12T05:14:28.309Z,4.40
2019-03-12T05:17:02.869Z,4.30
2019-03-12T05:19:31.933Z,4.30
2019-03-12T05:22:00.220Z,4.30
2019-03-12T05:24:28.637Z,4.30
2019-03-12T05:26:56.679Z,4.30
2019-03-12T05:29:24.339Z,4.40
2019-03-12T05:31:51.641Z,4.40
2019-03-12T05:34:22.961Z,4.40
2019-03-12T05:36:50.211Z,4.40
2019-03-12T05:39:18.801Z,4.30
2019-03-12T05:41:47.176Z,4.40
2019-03-12T05:44:15.999Z,4.40
2019-03-12T05:46:44.418Z,4.30
2019-03-12T05:49:13.103Z,4.30
2019-03-12T05:51:41.317Z,4.20
2019-03-12T05:54:09.449Z,4.30
2019-03-12T05:56:37.581Z,4.30
2019-03-12T05:59:04.625Z,4.30
2019-03-12T06:01:31.921Z,4.30
2019-03-12T06:03:59.885Z,4.30
2019-03-12T06:06:27.961Z,4.90
2019-03-12T06:08:56.012Z,4.50
2019-03-12T06:11:24.258Z,4.40
2019-03-12T06:13:52.382Z,4.40
2019-03-12T06:16:20.672Z,4.40
2019-03-12T06:18:49.119Z,4.50
2019-03-12T06:21:17.825Z,4.60
2019-03-12T06:23:45.846Z,4.60
2019-03-12T06:26:14.010Z,4.60
2019-03-12T06:28:42.595Z,4.70
2019-03-12T06:31:18.407Z,4.70
2019-03-12T06:34:08.034Z,4.80
2019-03-12T06:36:58.893Z,4.80
2019-03-12T06:40:05.415Z,4.80
2019-03-12T06:43:11.522Z,4.80
2019-03-12T06:45:58.991Z,4.90
2019-03-12T06:48:57.507Z,4.90
2019-03-12T06:51:43.074Z,5.00
2019-03-12T06:54:26.513Z,5.10
2019-03-12T06:57:07.994Z,5.50
2019-03-12T07:00:03.293Z,5.20
2019-03-12T07:02:40.770Z,5.30
2019-03-12T07:05:21.126Z,5.40
2019-03-12T07:08:11.692Z,5.30
2019-03-12T07:10:51.070Z,5.40
2019-03-12T07:13:44.011Z,5.40
2019-03-12T07:16:16.907Z,5.40
2019-03-12T07:19:02.871Z,5.50
2019-03-12T07:21:52.392Z,5.50
2019-03-12T07:24:34.154Z,5.50
2019-03-12T07:27:14.931Z,5.50
2019-03-12T07:29:52.006Z,5.60
2019-03-12T07:32:30.739Z,5.70
2019-03-12T07:35:22.786Z,5.80
2019-03-12T07:38:03.028Z,5.80
2019-03-12T07:40:50.730Z,5.90
2019-03-12T07:43:26.794Z,6.00
2019-03-12T07:46:08.904Z,6.00
2019-03-12T07:48:58.555Z,6.00
2019-03-12T07:51:44.077Z,6.10
2019-03-12T07:54:26.005Z,6.20
2019-03-12T07:57:06.554Z,6.20
2019-03-12T07:59:57.553Z,6.20
2019-03-12T08:02:54.134Z,6.40
2019-03-12T08:05:40.890Z,6.50
2019-03-12T08:08:37.867Z,6.50
2019-03-12T08:11:14.216Z,6.40
2019-03-12T08:14:00.547Z,6.50
2019-03-12T08:16:35.538Z,6.50
2019-03-12T08:19:25.550Z,6.90
2019-03-12T08:22:02.160Z,6.80
2019-03-12T08:24:36.833Z,6.60
2019-03-12T08:27:26.146Z,6.60
2019-03-12T08:30:05.447Z,6.60
2019-03-12T08:32:51.974Z,6.80
2019-03-12T08:35:36.163Z,6.70
2019-03-12T08:38:23.982Z,6.70
2019-03-12T08:41:01.136Z,6.80
2019-03-12T08:43:37.875Z,6.80
2019-03-12T08:46:23.930Z,6.90
2019-03-12T08:49:13.713Z,7.00
2019-03-12T08:52:04.880Z,7.10
2019-03-12T08:55:07.611Z,7.10
2019-03-12T08:57:54.158Z,7.20
2019-03-12T09:00:40.567Z,7.20
2019-03-12T09:03:37.490Z,7.20
2019-03-12T09:06:34.371Z,7.30
2019-03-12T09:09:21.878Z,7.30
2019-03-12T09:12:07.389Z,7.40
2019-03-12T09:14:49.480Z,7.50
2019-03-12T09:17:27.186Z,7.40
2019-03-12T09:20:29.953Z,7.60
2019-03-12T09:23:12.378Z,7.70
2019-03-12T09:25:59.531Z,7.80
2019-03-12T09:28:46.116Z,7.80
2019-03-12T09:31:32.272Z,7.80
2019-03-12T09:34:24.233Z,7.80
2019-03-12T09:37:15.171Z,7.90
2019-03-12T09:40:21.942Z,8.00
2019-03-12T09:43:07.674Z,8.10
2019-03-12T09:45:53.831Z,8.20
2019-03-12T09:48:43.184Z,8.30
2019-03-12T09:51:20.991Z,8.20
2019-03-12T09:53:56.882Z,8.20
2019-03-12T09:56:54.127Z,8.30
2019-03-12T09:59:31.042Z,8.40
2019-03-12T10:02:18.863Z,8.50
2019-03-12T10:05:11.838Z,8.30
2019-03-12T10:07:57.470Z,8.40
2019-03-12T10:10:53.028Z,8.50
2019-03-12T10:13:29.339Z,8.60
2019-03-12T10:16:26.190Z,8.60
2019-03-12T10:19:11.878Z,8.70
2019-03-12T10:22:13.681Z,9.10
2019-03-12T10:25:07.157Z,8.80
2019-03-12T10:27:44.036Z,8.70
2019-03-12T10:30:28.324Z,8.80
2019-03-12T10:33:17.935Z,8.90
2019-03-12T10:35:59.480Z,8.90
2019-03-12T10:39:11.678Z,9.00
2019-03-12T10:41:44.544Z,9.00
2019-03-12T10:44:40.648Z,9.10
2019-03-12T10:47:18.859Z,9.00
2019-03-12T10:49:46.313Z,9.00
2019-03-12T10:52:13.670Z,8.70
2019-03-12T10:54:41.087Z,9.00
2019-03-12T10:57:08.754Z,9.10
2019-03-12T10:59:40.037Z,9.00
2019-03-12T11:02:07.498Z,9.20
2019-03-12T11:04:35.194Z,9.30
2019-03-12T11:07:15.532Z,9.30
2019-03-12T11:09:31.582Z,9.40
2019-03-12T11:12:01.840Z,9.60
2019-03-12T11:14:28.863Z,9.50
2019-03-12T11:16:56.490Z,9.60
2019-03-12T11:19:23.899Z,9.60
2019-03-12T11:21:51.010Z,9.60
2019-03-12T11:24:18.717Z,9.50
2019-03-12T11:26:51.075Z,9.60
2019-03-12T11:29:18.123Z,9.60
2019-03-12T11:31:45.063Z,9.80
2019-03-12T11:34:12.417Z,9.80
2019-03-12T11:36:40.009Z,9.90
2019-03-12T11:39:07.266Z,10.00
2019-03-12T11:41:37.850Z,10.10
2019-03-12T11:44:05.435Z,10.20
2019-03-12T11:46:42.706Z,10.50
2019-03-12T11:49:03.053Z,10.60
2019-03-12T11:51:30.498Z,10.30
2019-03-12T11:54:01.511Z,10.20
2019-03-12T11:56:28.773Z,10.10
2019-03-12T11:58:56.331Z,10.50
2019-03-12T12:01:23.921Z,10.20
2019-03-12T12:03:51.476Z,10.20
2019-03-12T12:06:25.666Z,10.20
2019-03-12T12:08:52.970Z,10.10
2019-03-12T12:11:20.678Z,10.10
2019-03-12T12:13:48.164Z,10.20
2019-03-12T12:16:15.335Z,10.10
2019-03-12T12:18:48.682Z,10.00
2019-03-12T12:21:16.452Z,10.20
2019-03-12T12:23:44.111Z,10.30
2019-03-12T12:26:11.510Z,10.30
2019-03-12T12:28:38.841Z,10.50
2019-03-12T12:31:08.423Z,10.90
2019-03-12T12:33:37.162Z,10.60
2019-03-12T12:36:04.323Z,10.70
2019-03-12T12:38:32.950Z,10.30
2019-03-12T12:41:00.152Z,10.70
2019-03-12T12:43:27.538Z,11.00
2019-03-12T12:45:57.067Z,10.60
2019-03-12T12:48:24.532Z,10.70
2019-03-12T12:51:02.604Z,11.00
2019-03-12T12:53:21.491Z,11.10
2019-03-12T12:55:48.691Z,10.60
2019-03-12T12:58:15.840Z,10.70
2019-03-12T13:00:45.891Z,11.00
2019-03-12T13:03:13.777Z,10.70
2019-03-12T13:05:41.250Z,10.80
2019-03-12T13:08:08.686Z,11.00
2019-03-12T13:10:36.468Z,11.00
2019-03-12T13:13:04.928Z,10.60
2019-03-12T13:15:41.518Z,10.50
2019-03-12T13:18:08.828Z,10.60
2019-03-12T13:20:36.571Z,10.50
2019-03-12T13:23:05.423Z,10.60
2019-03-12T13:25:34.119Z,10.80
2019-03-12T13:28:05.335Z,10.90
2019-03-12T13:30:34.230Z,10.90
2019-03-12T13:33:02.618Z,11.00
2019-03-12T13:35:31.018Z,11.00
2019-03-12T13:37:59.483Z,11.00
2019-03-12T13:40:31.026Z,11.20
2019-03-12T13:42:59.179Z,11.10
2019-03-12T13:45:28.259Z,11.10
2019-03-12T13:47:56.697Z,11.30
2019-03-12T13:50:25.747Z,11.60
2019-03-12T13:52:56.006Z,11.50
2019-03-12T13:55:24.369Z,11.10
2019-03-12T13:57:52.944Z,11.10
2019-03-12T14:00:21.719Z,11.00
2019-03-12T14:02:50.215Z,11.00
2019-03-12T14:05:19.520Z,11.10
2019-03-12T14:07:47.957Z,11.10
2019-03-12T14:10:18.264Z,11.10
2019-03-12T14:12:47.640Z,11.10
2019-03-12T14:15:24.662Z,11.10
2019-03-12T14:17:51.721Z,11.10
2019-03-12T14:20:40.424Z,11.00
2019-03-12T14:23:09.122Z,11.00
2019-03-12T14:25:37.466Z,10.90
2019-03-12T14:28:05.719Z,11.00
2019-03-12T14:30:34.598Z,10.90
2019-03-12T14:33:06.722Z,10.80
2019-03-12T14:35:35.347Z,10.80
2019-03-12T14:38:03.783Z,10.80
2019-03-12T14:40:32.486Z,10.90
2019-03-12T14:43:00.673Z,10.70
2019-03-12T14:45:30.335Z,11.00
2019-03-12T14:47:58.834Z,10.70
2019-03-12T14:50:27.432Z,10.70
2019-03-12T14:52:59.608Z,10.70
2019-03-12T14:55:28.258Z,10.60
2019-03-12T14:57:58.389Z,10.50
2019-03-12T15:00:26.834Z,10.50
2019-03-12T15:02:55.262Z,10.60
2019-03-12T15:05:23.697Z,10.60
2019-03-12T15:08:00.116Z,10.60
2019-03-12T15:10:28.167Z,10.60
2019-03-12T15:12:56.627Z,10.70
2019-03-12T15:15:24.817Z,10.60
2019-03-12T15:17:53.122Z,10.90
2019-03-12T15:20:21.622Z,10.50
2019-03-12T15:22:49.938Z,10.60
2019-03-12T15:25:18.511Z,10.50
2019-03-12T15:27:45.662Z,10.60
2019-03-12T15:30:16.742Z,10.50
2019-03-12T15:32:45.230Z,10.50
2019-03-12T15:35:13.471Z,10.40
2019-03-12T15:37:41.743Z,10.50
2019-03-12T15:40:10.242Z,10.60
2019-03-12T15:42:39.954Z,10.40
2019-03-12T15:45:07.382Z,10.80
2019-03-12T15:47:38.850Z,10.60
2019-03-12T15:50:09.729Z,10.30
2019-03-12T15:52:37.371Z,10.20
2019-03-12T15:55:05.812Z,10.70
2019-03-12T15:57:32.902Z,10.30
2019-03-12T16:00:01.823Z,10.30
2019-03-12T16:02:29.791Z,10.20
2019-03-12T16:04:58.097Z,10.60
2019-03-12T16:07:26.240Z,10.20
2019-03-12T16:09:54.701Z,10.60
2019-03-12T16:12:23.044Z,10.20
2019-03-12T16:14:51.106Z,10.20
2019-03-12T16:17:19.663Z,10.30
2019-03-12T16:19:47.810Z,10.20
2019-03-12T16:22:16.811Z,10.20
2019-03-12T16:24:44.157Z,10.60
2019-03-12T16:27:12.939Z,10.10
2019-03-12T16:29:39.893Z,10.60
2019-03-12T16:32:08.215Z,10.10
2019-03-12T16:34:36.795Z,9.80
2019-03-12T16:37:05.293Z,10.00
2019-03-12T16:39:33.809Z,10.10
2019-03-12T16:42:01.875Z,10.20
2019-03-12T16:44:30.382Z,10.10
2019-03-12T16:46:58.570Z,10.00
2019-03-12T16:49:27.152Z,10.10
2019-03-12T16:51:55.498Z,10.10
2019-03-12T16:54:23.466Z,10.10
2019-03-12T16:56:51.909Z,10.00
2019-03-12T16:59:20.538Z,10.00
2019-03-12T17:01:48.704Z,10.00
2019-03-12T17:04:17.703Z,10.10
2019-03-12T17:06:46.278Z,10.40
2019-03-12T17:09:14.732Z,10.40
2019-03-12T17:11:43.243Z,10.10
2019-03-12T17:14:11.651Z,10.10
2019-03-12T17:16:39.595Z,10.00
2019-03-12T17:19:08.446Z,10.10
2019-03-12T17:21:35.916Z,10.10
2019-03-12T17:24:04.006Z,10.10
2019-03-12T17:26:32.142Z,10.50
2019-03-12T17:29:00.198Z,10.10
2019-03-12T17:31:28.515Z,10.40
2019-03-12T17:33:56.979Z,10.10
2019-03-12T17:36:28.280Z,10.00
2019-03-12T17:38:55.407Z,10.00
2019-03-12T17:41:26.498Z,10.60
2019-03-12T17:43:53.703Z,10.00
2019-03-12T17:46:20.850Z,10.00
2019-03-12T17:48:49.120Z,10.00
2019-03-12T17:51:17.282Z,10.20
2019-03-12T17:53:45.586Z,10.10
2019-03-12T17:56:13.828Z,10.10
2019-03-12T17:58:41.872Z,10.10
2019-03-12T18:01:09.917Z,10.40
2019-03-12T18:03:37.850Z,10.10
2019-03-12T18:06:06.484Z,10.10
2019-03-12T18:08:34.658Z,10.00
2019-03-12T18:11:02.794Z,9.90
2019-03-12T18:13:29.942Z,9.90
2019-03-12T18:15:58.007Z,9.90
2019-03-12T18:18:26.216Z,9.90
2019-03-12T18:20:57.030Z,10.00
2019-03-12T18:23:25.198Z,10.10
2019-03-12T18:25:53.489Z,10.00
2019-03-12T18:28:21.635Z,10.20
2019-03-12T18:30:49.915Z,10.00
2019-03-12T18:33:18.198Z,10.00
2019-03-12T18:35:46.268Z,10.00
2019-03-12T18:38:14.414Z,9.90
2019-03-12T18:40:42.607Z,10.00
2019-03-12T18:43:10.746Z,9.90
2019-03-12T18:45:38.917Z,10.00
2019-03-12T18:48:07.366Z,10.20
2019-03-12T18:50:36.206Z,10.20
2019-03-12T18:53:04.597Z,10.20
2019-03-12T18:55:41.652Z,10.20
2019-03-12T18:58:10.213Z,10.30
2019-03-12T19:00:37.730Z,10.10
2019-03-12T19:03:06.124Z,10.20
2019-03-12T19:05:34.386Z,10.10
2019-03-12T19:08:02.777Z,10.10
2019-03-12T19:10:31.374Z,10.10
2019-03-12T19:12:59.791Z,10.20
2019-03-12T19:15:28.341Z,10.60
2019-03-12T19:17:56.414Z,10.10
2019-03-12T19:20:25.362Z,10.10
2019-03-12T19:22:54.242Z,10.10
2019-03-12T19:25:23.090Z,10.10
2019-03-12T19:27:59.996Z,10.20
2019-03-12T19:30:21.642Z,10.20
2019-03-12T19:32:56.109Z,10.20
2019-03-12T19:35:24.901Z,10.30
2019-03-12T19:37:53.142Z,10.30
2019-03-12T19:40:21.973Z,10.30
2019-03-12T19:42:50.202Z,10.30
2019-03-12T19:45:18.371Z,10.10
2019-03-12T19:47:46.631Z,10.30
2019-03-12T19:50:15.358Z,10.60
2019-03-12T19:52:43.622Z,10.20
2019-03-12T19:55:13.550Z,10.50
2019-03-12T19:57:41.744Z,10.20
2019-03-12T20:00:15.104Z,10.00
2019-03-12T20:02:43.558Z,10.00
2019-03-12T20:05:10.762Z,10.20
2019-03-12T20:07:37.920Z,9.80
2019-03-12T20:10:21.438Z,9.80
2019-03-12T20:13:27.546Z,10.10
2019-03-12T20:16:36.515Z,9.80
2019-03-12T20:19:41.121Z,9.80
2019-03-12T20:23:06.934Z,9.80
2019-03-12T20:26:11.890Z,9.60
2019-03-12T20:29:34.112Z,9.60
2019-03-12T20:32:48.267Z,9.60
2019-03-12T20:36:19.858Z,9.60
2019-03-12T20:39:33.686Z,9.50
2019-03-12T20:42:37.838Z,9.40
2019-03-12T20:45:41.369Z,9.40
2019-03-12T20:49:10.754Z,9.40
2019-03-12T20:52:19.338Z,9.40
2019-03-12T20:55:26.983Z,9.50
2019-03-12T20:58:46.883Z,9.60
2019-03-12T21:02:00.012Z,9.50
2019-03-12T21:05:24.098Z,9.50
2019-03-12T21:08:49.852Z,9.50
2019-03-12T21:12:21.458Z,9.70
2019-03-12T21:15:36.179Z,9.60
2019-03-12T21:18:42.677Z,9.60
2019-03-12T21:21:39.994Z,9.70
2019-03-12T21:25:05.078Z,9.80
2019-03-12T21:28:01.643Z,9.80
2019-03-12T21:30:29.802Z,9.80
2019-03-12T21:32:58.054Z,9.80
2019-03-12T21:35:26.120Z,10.10
2019-03-12T21:37:54.195Z,10.00
2019-03-12T21:40:23.906Z,9.90
2019-03-12T21:42:52.386Z,9.60
2019-03-12T21:45:20.534Z,9.30
2019-03-12T21:47:48.727Z,8.80
2019-03-12T21:50:16.890Z,8.40
2019-03-12T21:52:45.145Z,8.20
2019-03-12T21:55:13.291Z,7.80
2019-03-12T21:57:41.417Z,7.60
2019-03-12T22:00:12.298Z,7.40
2019-03-12T22:02:40.861Z,7.20
2019-03-12T22:05:09.138Z,7.20
2019-03-12T22:07:37.391Z,7.00
2019-03-12T22:10:06.530Z,7.00
2019-03-12T22:12:34.641Z,6.90
2019-03-12T22:15:03.490Z,6.80
2019-03-12T22:17:31.579Z,6.70
2019-03-12T22:19:59.594Z,6.80
2019-03-12T22:22:45.502Z,6.70
2019-03-12T22:25:16.508Z,6.60
2019-03-12T22:27:45.466Z,6.90
2019-03-12T22:30:16.614Z,6.60
2019-03-12T22:32:45.059Z,6.60
2019-03-12T22:35:13.838Z,6.50
2019-03-12T22:37:42.827Z,6.50
2019-03-12T22:40:11.559Z,6.40
2019-03-12T22:42:39.874Z,6.40
2019-03-12T22:45:08.754Z,6.40
2019-03-12T22:47:37.484Z,6.40
2019-03-12T22:50:06.352Z,6.40
2019-03-12T22:52:35.362Z,6.50
2019-03-12T22:55:07.014Z,6.50
2019-03-12T22:57:34.031Z,6.40
2019-03-12T23:00:01.185Z,6.40
2019-03-12T23:02:29.425Z,6.50
2019-03-12T23:04:57.789Z,6.80
2019-03-12T23:07:26.397Z,6.50
2019-03-12T23:09:53.369Z,6.30
2019-03-12T23:12:21.993Z,6.30
2019-03-12T23:14:50.279Z,6.30
2019-03-12T23:17:18.601Z,6.30
2019-03-12T23:19:46.861Z,6.40
2019-03-12T23:22:14.871Z,6.40
2019-03-12T23:24:43.101Z,6.40
2019-03-12T23:27:11.221Z,6.30
2019-03-12T23:29:39.469Z,6.50
2019-03-12T23:32:06.845Z,6.30
2019-03-12T23:34:34.955Z,6.30
2019-03-12T23:37:03.228Z,6.30
2019-03-12T23:39:31.792Z,6.30
2019-03-12T23:42:01.143Z,6.30
2019-03-12T23:44:28.808Z,6.30
2019-03-12T23:46:56.914Z,6.30
2019-03-12T23:49:25.418Z,6.40
2019-03-12T23:51:53.646Z,6.40
2019-03-12T23:54:22.189Z,6.40
2019-03-12T23:56:50.859Z,6.40
2019-03-12T23:59:19.249Z,6.30
